createdAt,value
2023-02-01T00:00:57.054Z,4.63
2023-02-01T00:03:25.218Z,4.20
2023-02-01T00:05:59.469Z,4.27
2023-02-01T00:08:27.592Z,4.50
2023-02-01T00:11:02.412Z,4.37
2023-02-01T00:13:31.797Z,3.93
2023-02-01T00:16:05.809Z,4.43
2023-02-01T00:18:34.112Z,4.80
2023-02-01T00:21:02.385Z,3.77
2023-02-01T00:23:30.367Z,4.10
2023-02-01T00:26:03.919Z,4.80
2023-02-01T00:28:32.224Z,4.67
2023-02-01T00:31:00.829Z,4.40
2023-02-01T00:33:29.282Z,4.43
2023-02-01T00:35:59.991Z,4.00
2023-02-01T00:38:28.381Z,4.43
2023-02-01T00:40:56.912Z,4.17
2023-02-01T00:43:26.262Z,4.03
2023-02-01T00:45:54.229Z,3.80
2023-02-01T00:48:22.203Z,4.40
2023-02-01T00:50:50.187Z,5.00
2023-02-01T00:53:18.678Z,4.47
2023-02-01T00:55:47.588Z,4.63
2023-02-01T00:58:16.108Z,4.07
2023-02-01T01:00:45.442Z,4.03
2023-02-01T01:03:19.483Z,4.50
2023-02-01T01:05:48.048Z,4.53
2023-02-01T01:08:16.440Z,3.77
2023-02-01T01:10:45.188Z,4.20
2023-02-01T01:13:13.238Z,4.00
2023-02-01T01:15:42.026Z,4.10
2023-02-01T01:18:12.673Z,4.10
2023-02-01T01:20:42.536Z,4.63
2023-02-01T01:23:10.950Z,4.00
2023-02-01T01:25:40.737Z,5.27
2023-02-01T01:28:09.377Z,4.53
2023-02-01T01:30:37.675Z,5.60
2023-02-01T01:33:06.023Z,4.97
2023-02-01T01:35:35.918Z,5.37
2023-02-01T01:38:04.589Z,4.33
2023-02-01T01:40:33.015Z,4.60
2023-02-01T01:43:01.740Z,5.50
2023-02-01T01:45:31.853Z,6.40
2023-02-01T01:48:02.749Z,5.13
2023-02-01T01:50:34.500Z,4.87
2023-02-01T01:53:07.718Z,5.13
2023-02-01T01:55:40.873Z,5.53
2023-02-01T01:58:14.105Z,5.60
2023-02-01T02:00:42.852Z,5.37
2023-02-01T02:03:16.771Z,5.90
2023-02-01T02:05:45.239Z,5.63
2023-02-01T02:08:14.889Z,6.57
2023-02-01T02:11:01.538Z,5.83
2023-02-01T02:13:32.101Z,5.90
2023-02-01T02:16:09.371Z,5.67
2023-02-01T02:18:44.430Z,5.60
2023-02-01T02:21:17.696Z,6.33
2023-02-01T02:24:38.598Z,6.07
2023-02-01T02:27:25.572Z,5.27
2023-02-01T02:30:28.975Z,6.07
2023-02-01T02:33:26.676Z,5.77
2023-02-01T02:36:02.758Z,6.37
2023-02-01T02:38:39.117Z,5.47
2023-02-01T02:41:37.612Z,6.33
2023-02-01T02:44:31.125Z,5.43
2023-02-01T02:47:22.961Z,4.33
2023-02-01T02:50:08.429Z,5.13
2023-02-01T02:52:59.095Z,5.27
2023-02-01T02:55:30.497Z,5.20
2023-02-01T02:58:17.862Z,5.00
2023-02-01T03:01:05.623Z,5.20
2023-02-01T03:03:50.982Z,5.40
2023-02-01T03:06:20.798Z,4.70
2023-02-01T03:08:54.868Z,5.20
2023-02-01T03:11:23.300Z,4.43
2023-02-01T03:13:54.064Z,5.17
2023-02-01T03:16:27.312Z,4.73
2023-02-01T03:19:00.660Z,4.70
2023-02-01T03:21:33.772Z,5.27
2023-02-01T03:24:08.639Z,4.80
2023-02-01T03:26:40.681Z,4.97
2023-02-01T03:29:14.434Z,4.03
2023-02-01T03:31:44.759Z,4.83
2023-02-01T03:34:13.648Z,5.30
2023-02-01T03:36:50.312Z,3.93
2023-02-01T03:39:26.874Z,4.43
2023-02-01T03:41:58.592Z,4.67
2023-02-01T03:44:31.568Z,3.83
2023-02-01T03:47:04.317Z,4.93
2023-02-01T03:49:36.840Z,4.30
2023-02-01T03:52:08.992Z,4.23
2023-02-01T03:54:39.914Z,4.43
2023-02-01T03:57:13.315Z,3.77
2023-02-01T03:59:42.482Z,4.73
2023-02-01T04:02:10.619Z,4.23
2023-02-01T04:04:39.230Z,4.80
2023-02-01T04:07:07.811Z,4.57
2023-02-01T04:09:35.756Z,4.17
2023-02-01T04:12:05.331Z,4.70
2023-02-01T04:14:33.310Z,4.37
2023-02-01T04:17:01.259Z,4.43
2023-02-01T04:19:29.248Z,4.17
2023-02-01T04:21:57.262Z,4.50
2023-02-01T04:24:25.201Z,4.40
2023-02-01T04:26:53.215Z,4.60
2023-02-01T04:29:22.607Z,4.30
2023-02-01T04:31:51.458Z,4.90
2023-02-01T04:34:19.622Z,4.23
2023-02-01T04:36:47.560Z,4.57
2023-02-01T04:39:15.583Z,4.27
2023-02-01T04:41:43.535Z,4.53
2023-02-01T04:44:15.756Z,4.73
2023-02-01T04:46:45.339Z,5.13
2023-02-01T04:49:14.553Z,4.27
2023-02-01T04:51:43.381Z,4.90
2023-02-01T04:54:13.292Z,4.30
2023-02-01T04:56:41.794Z,4.63
2023-02-01T04:59:09.888Z,4.40
2023-02-01T05:01:38.104Z,4.73
2023-02-01T05:04:07.621Z,4.23
2023-02-01T05:06:35.728Z,4.23
2023-02-01T05:09:03.764Z,4.30
2023-02-01T05:11:49.426Z,4.93
2023-02-01T05:14:17.402Z,4.43
2023-02-01T05:16:45.514Z,4.33
2023-02-01T05:19:14.849Z,4.60
2023-02-01T05:21:42.819Z,4.37
2023-02-01T05:24:17.349Z,4.27
2023-02-01T05:26:45.459Z,4.30
2023-02-01T05:29:13.838Z,4.97
2023-02-01T05:31:41.866Z,4.67
2023-02-01T05:34:10.597Z,4.67
2023-02-01T05:36:40.198Z,4.77
2023-02-01T05:39:08.273Z,4.70
2023-02-01T05:41:36.315Z,5.07
2023-02-01T05:44:04.847Z,4.43
2023-02-01T05:46:33.559Z,4.57
2023-02-01T05:49:01.674Z,5.10
2023-02-01T05:51:29.594Z,3.90
2023-02-01T05:53:58.954Z,4.97
2023-02-01T05:56:27.049Z,4.47
2023-02-01T05:58:55.080Z,4.27
2023-02-01T06:01:23.112Z,4.37
2023-02-01T06:03:51.153Z,4.57
2023-02-01T06:06:20.536Z,4.57
2023-02-01T06:08:48.578Z,5.07
2023-02-01T06:11:31.760Z,4.87
2023-02-01T06:14:00.636Z,4.40
2023-02-01T06:16:29.723Z,4.40
2023-02-01T06:18:57.670Z,4.67
2023-02-01T06:21:25.630Z,4.97
2023-02-01T06:23:54.215Z,4.33
2023-02-01T06:26:23.770Z,4.50
2023-02-01T06:28:52.152Z,4.83
2023-02-01T06:31:20.284Z,4.90
2023-02-01T06:33:49.830Z,4.80
2023-02-01T06:36:19.655Z,4.97
2023-02-01T06:38:47.663Z,3.90
2023-02-01T06:41:15.709Z,5.00
2023-02-01T06:43:46.595Z,4.60
2023-02-01T06:46:15.885Z,4.30
2023-02-01T06:48:43.882Z,4.97
2023-02-01T06:51:22.185Z,4.20
2023-02-01T06:53:50.163Z,5.03
2023-02-01T06:56:18.705Z,4.90
2023-02-01T06:58:48.983Z,4.30
2023-02-01T07:01:18.282Z,5.30
2023-02-01T07:03:50.827Z,4.97
2023-02-01T07:06:19.885Z,4.17
2023-02-01T07:08:47.912Z,4.10
2023-02-01T07:11:18.037Z,4.60
2023-02-01T07:13:48.051Z,5.00
2023-02-01T07:16:18.433Z,4.87
2023-02-01T07:18:46.945Z,4.23
2023-02-01T07:21:15.503Z,4.80
2023-02-01T07:23:43.523Z,4.50
2023-02-01T07:26:14.096Z,5.03
2023-02-01T07:28:42.622Z,4.67
2023-02-01T07:31:14.437Z,5.20
2023-02-01T07:33:42.428Z,4.53
2023-02-01T07:36:14.504Z,5.03
2023-02-01T07:38:42.568Z,4.53
2023-02-01T07:41:10.782Z,5.47
2023-02-01T07:43:38.829Z,4.60
2023-02-01T07:46:07.961Z,4.57
2023-02-01T07:48:37.326Z,4.53
2023-02-01T07:51:07.747Z,5.13
2023-02-01T07:53:36.520Z,4.80
2023-02-01T07:56:05.672Z,5.03
2023-02-01T07:58:33.612Z,4.37
2023-02-01T08:01:27.304Z,4.87
2023-02-01T08:03:59.954Z,5.30
2023-02-01T08:06:29.382Z,4.90
2023-02-01T08:08:57.448Z,7.00
2023-02-01T08:11:26.701Z,4.60
2023-02-01T08:13:58.635Z,4.23
2023-02-01T08:16:26.806Z,5.47
2023-02-01T08:18:56.654Z,4.97
2023-02-01T08:21:27.270Z,4.80
2023-02-01T08:23:57.147Z,5.40
2023-02-01T08:26:27.000Z,4.10
2023-02-01T08:28:56.963Z,4.27
2023-02-01T08:31:27.137Z,4.33
2023-02-01T08:33:59.122Z,4.40
2023-02-01T08:36:28.475Z,5.03
2023-02-01T08:38:56.621Z,4.00
2023-02-01T08:41:26.590Z,4.43
2023-02-01T08:43:55.334Z,5.23
2023-02-01T08:46:24.650Z,5.00
2023-02-01T08:48:53.435Z,4.07
2023-02-01T08:51:24.476Z,4.37
2023-02-01T08:53:53.256Z,4.83
2023-02-01T08:56:21.745Z,5.10
2023-02-01T08:58:49.765Z,5.00
2023-02-01T09:01:18.929Z,4.83
2023-02-01T09:03:47.595Z,4.90
2023-02-01T09:06:17.134Z,5.07
2023-02-01T09:08:46.777Z,4.73
2023-02-01T09:11:16.493Z,4.73
2023-02-01T09:13:44.542Z,4.77
2023-02-01T09:16:12.771Z,4.50
2023-02-01T09:18:50.476Z,4.70
2023-02-01T09:21:28.897Z,4.70
2023-02-01T09:23:58.296Z,4.40
2023-02-01T09:26:32.047Z,4.80
2023-02-01T09:29:01.054Z,4.43
2023-02-01T09:31:29.344Z,4.73
2023-02-01T09:33:57.934Z,4.63
2023-02-01T09:36:25.903Z,4.73
2023-02-01T09:38:54.815Z,4.50
2023-02-01T09:41:34.488Z,5.00
2023-02-01T09:44:10.495Z,4.67
2023-02-01T09:46:38.700Z,4.17
2023-02-01T09:49:13.843Z,5.07
2023-02-01T09:51:47.562Z,4.77
2023-02-01T09:54:18.509Z,4.10
2023-02-01T09:56:51.893Z,5.33
2023-02-01T09:59:32.878Z,5.00
2023-02-01T10:02:01.618Z,4.87
2023-02-01T10:04:29.809Z,5.57
2023-02-01T10:07:22.568Z,5.20
2023-02-01T10:10:01.130Z,5.27
2023-02-01T10:12:54.494Z,3.63
2023-02-01T10:15:35.343Z,4.23
2023-02-01T10:18:16.261Z,4.90
2023-02-01T10:20:54.605Z,4.23
2023-02-01T10:23:50.907Z,3.73
2023-02-01T10:26:22.370Z,4.03
2023-02-01T10:28:54.136Z,4.60
2023-02-01T10:31:26.900Z,4.53
2023-02-01T10:33:58.641Z,3.70
2023-02-01T10:36:32.923Z,3.93
2023-02-01T10:39:01.548Z,3.90
2023-02-01T10:41:34.904Z,4.07
2023-02-01T10:44:08.165Z,4.00
2023-02-01T10:46:36.380Z,3.60
2023-02-01T10:49:07.546Z,4.10
2023-02-01T10:51:47.940Z,3.57
2023-02-01T10:54:21.704Z,3.33
2023-02-01T10:56:51.205Z,3.20
2023-02-01T10:59:22.378Z,3.30
2023-02-01T11:01:52.143Z,3.00
2023-02-01T11:04:21.655Z,3.77
2023-02-01T11:06:53.269Z,3.40
2023-02-01T11:09:23.208Z,3.07
2023-02-01T11:12:00.197Z,2.73
2023-02-01T11:14:40.322Z,3.20
2023-02-01T11:17:29.161Z,3.07
2023-02-01T11:20:02.143Z,2.90
2023-02-01T11:22:31.098Z,2.80
2023-02-01T11:24:59.934Z,3.20
2023-02-01T11:27:28.345Z,3.07
2023-02-01T11:30:03.120Z,2.90
2023-02-01T11:32:32.156Z,2.60
2023-02-01T11:35:04.212Z,3.13
2023-02-01T11:37:37.118Z,2.77
2023-02-01T11:40:26.254Z,2.80
2023-02-01T11:42:59.009Z,2.97
2023-02-01T11:45:30.931Z,2.73
2023-02-01T11:48:01.344Z,2.93
2023-02-01T11:50:36.112Z,2.77
2023-02-01T11:53:34.311Z,3.03
2023-02-01T11:56:11.890Z,2.97
2023-02-01T11:59:10.316Z,2.90
2023-02-01T12:02:03.252Z,3.40
2023-02-01T12:05:10.172Z,2.97
2023-02-01T12:07:54.037Z,2.83
2023-02-01T12:10:31.762Z,2.83
2023-02-01T12:13:16.414Z,3.33
2023-02-01T12:15:59.026Z,3.13
2023-02-01T12:18:55.873Z,2.53
2023-02-01T12:21:44.929Z,2.70
2023-02-01T12:24:41.391Z,2.37
2023-02-01T12:27:36.336Z,2.87
2023-02-01T12:30:26.106Z,2.80
2023-02-01T12:33:06.652Z,2.77
2023-02-01T12:35:51.859Z,2.93
2023-02-01T12:38:47.562Z,3.13
2023-02-01T12:41:30.181Z,3.03
2023-02-01T12:44:02.175Z,3.77
2023-02-01T12:46:34.336Z,2.80
2023-02-01T12:49:07.516Z,3.00
2023-02-01T12:51:40.210Z,3.03
2023-02-01T12:54:16.796Z,2.83
2023-02-01T12:56:49.653Z,2.77
2023-02-01T12:59:24.674Z,2.23
2023-02-01T13:01:59.929Z,2.60
2023-02-01T13:04:33.864Z,3.10
2023-02-01T13:07:10.356Z,2.97
2023-02-01T13:09:42.858Z,2.60
2023-02-01T13:12:19.391Z,2.50
2023-02-01T13:14:51.626Z,2.70
2023-02-01T13:17:25.607Z,2.63
2023-02-01T13:19:59.501Z,2.90
2023-02-01T13:22:32.977Z,3.10
2023-02-01T13:25:03.008Z,3.03
2023-02-01T13:27:32.381Z,3.37
2023-02-01T13:30:02.679Z,3.20
2023-02-01T13:33:18.217Z,3.37
2023-02-01T13:36:04.802Z,3.27
2023-02-01T13:39:00.889Z,3.30
2023-02-01T13:41:32.350Z,3.50
2023-02-01T13:44:03.856Z,2.90
2023-02-01T13:46:32.482Z,3.30
2023-02-01T13:49:03.648Z,2.90
2023-02-01T13:51:37.895Z,4.57
2023-02-01T13:54:07.895Z,3.13
2023-02-01T13:56:43.644Z,3.17
2023-02-01T14:00:00.604Z,3.13
2023-02-01T14:03:22.887Z,3.43
2023-02-01T14:06:17.425Z,3.77
2023-02-01T14:09:04.877Z,3.50
2023-02-01T14:11:40.567Z,3.60
2023-02-01T14:14:42.846Z,3.27
2023-02-01T14:17:38.567Z,3.40
2023-02-01T14:20:54.536Z,3.63
2023-02-01T14:23:25.711Z,3.00
2023-02-01T14:26:19.384Z,3.90
2023-02-01T14:28:55.214Z,3.43
2023-02-01T14:31:37.267Z,3.83
2023-02-01T14:34:17.395Z,3.83
2023-02-01T14:36:49.598Z,3.50
2023-02-01T14:39:31.118Z,3.30
2023-02-01T14:42:02.544Z,3.60
2023-02-01T14:44:37.934Z,3.43
2023-02-01T14:47:36.388Z,3.30
2023-02-01T14:50:24.115Z,3.93
2023-02-01T14:53:06.291Z,3.33
2023-02-01T14:55:38.402Z,3.73
2023-02-01T14:58:17.132Z,3.53
2023-02-01T15:00:54.074Z,4.47
2023-02-01T15:03:42.507Z,3.30
2023-02-01T15:06:28.346Z,3.50
2023-02-01T15:08:59.227Z,3.57
2023-02-01T15:11:27.553Z,3.70
2023-02-01T15:13:57.130Z,3.40
2023-02-01T15:19:15.634Z,3.40
2023-02-01T15:21:50.073Z,3.70
2023-02-01T15:24:23.107Z,3.80
2023-02-01T15:26:51.970Z,4.30
2023-02-01T15:29:21.051Z,3.33
2023-02-01T15:31:52.910Z,3.73
2023-02-01T15:34:22.121Z,3.70
2023-02-01T15:37:02.359Z,3.60
2023-02-01T15:39:32.348Z,3.60
2023-02-01T15:42:10.832Z,3.37
2023-02-01T15:44:42.827Z,3.40
2023-02-01T15:47:18.139Z,3.23
2023-02-01T15:49:48.419Z,3.70
2023-02-01T15:52:26.807Z,4.40
2023-02-01T15:54:57.899Z,3.13
2023-02-01T15:57:32.069Z,3.20
2023-02-01T16:00:02.281Z,3.53
2023-02-01T16:02:45.659Z,3.57
2023-02-01T16:05:33.172Z,4.50
2023-02-01T16:08:04.847Z,3.70
2023-02-01T16:10:33.975Z,3.67
2023-02-01T16:13:01.897Z,3.40
2023-02-01T16:15:30.747Z,3.27
2023-02-01T16:18:00.258Z,3.30
2023-02-01T16:20:28.215Z,3.40
2023-02-01T16:22:56.170Z,3.80
2023-02-01T16:25:24.691Z,3.47
2023-02-01T16:27:52.793Z,3.37
2023-02-01T16:30:23.970Z,3.43
2023-02-01T16:32:55.780Z,3.67
2023-02-01T16:35:27.134Z,3.33
2023-02-01T16:37:55.247Z,3.30
2023-02-01T16:40:23.778Z,3.40
2023-02-01T16:42:55.973Z,3.30
2023-02-01T16:45:24.259Z,4.03
2023-02-01T16:47:55.345Z,3.37
2023-02-01T16:50:27.125Z,3.20
2023-02-01T16:52:55.262Z,3.27
2023-02-01T16:55:24.256Z,3.50
2023-02-01T16:57:52.656Z,3.47
2023-02-01T17:00:24.849Z,3.80
2023-02-01T17:02:53.624Z,3.63
2023-02-01T17:05:22.353Z,3.40
2023-02-01T17:07:53.016Z,3.80
2023-02-01T17:10:34.490Z,3.63
2023-02-01T17:13:03.411Z,3.47
2023-02-01T17:15:36.735Z,4.00
2023-02-01T17:18:05.143Z,3.70
2023-02-01T17:20:34.161Z,3.67
2023-02-01T17:23:03.504Z,3.53
2023-02-01T17:25:32.728Z,4.03
2023-02-01T17:28:01.146Z,3.50
2023-02-01T17:30:29.373Z,3.47
2023-02-01T17:32:57.518Z,3.87
2023-02-01T17:35:28.536Z,3.80
2023-02-01T17:37:56.686Z,3.83
2023-02-01T17:40:25.993Z,3.80
2023-02-01T17:42:57.458Z,4.03
2023-02-01T17:45:40.552Z,3.97
2023-02-01T17:48:09.492Z,3.87
2023-02-01T17:50:38.849Z,3.93
2023-02-01T17:53:09.718Z,3.90
2023-02-01T17:55:43.211Z,3.70
2023-02-01T17:58:13.219Z,3.93
2023-02-01T18:00:42.024Z,3.73
2023-02-01T18:03:22.927Z,3.90
2023-02-01T18:05:53.407Z,3.60
2023-02-01T18:08:22.839Z,3.57
2023-02-01T18:10:59.768Z,3.30
2023-02-01T18:13:28.191Z,4.37
2023-02-01T18:15:56.699Z,3.60
2023-02-01T18:18:24.585Z,3.13
2023-02-01T18:20:52.804Z,3.33
2023-02-01T18:23:23.444Z,3.67
2023-02-01T18:25:52.645Z,3.43
2023-02-01T18:28:21.866Z,3.77
2023-02-01T18:30:51.719Z,3.47
2023-02-01T18:33:22.101Z,3.93
2023-02-01T18:35:50.479Z,3.60
2023-02-01T18:38:18.639Z,4.63
2023-02-01T18:40:50.728Z,3.07
2023-02-01T18:43:19.221Z,3.80
2023-02-01T18:45:50.246Z,3.53
2023-02-01T18:48:22.089Z,3.67
2023-02-01T18:50:57.144Z,4.30
2023-02-01T18:53:27.420Z,2.80
2023-02-01T18:55:56.168Z,3.93
2023-02-01T18:58:26.167Z,3.63
2023-02-01T19:00:57.508Z,3.37
2023-02-01T19:03:26.836Z,3.60
2023-02-01T19:05:56.877Z,3.67
2023-02-01T19:08:25.615Z,3.73
2023-02-01T19:10:53.730Z,3.97
2023-02-01T19:13:24.496Z,3.63
2023-02-01T19:15:52.595Z,3.60
2023-02-01T19:18:22.057Z,3.50
2023-02-01T19:20:51.730Z,3.47
2023-02-01T19:23:19.959Z,3.50
2023-02-01T19:25:49.578Z,3.87
2023-02-01T19:28:17.742Z,3.83
2023-02-01T19:30:45.748Z,3.20
2023-02-01T19:33:13.907Z,3.60
2023-02-01T19:35:43.172Z,4.10
2023-02-01T19:38:11.320Z,3.83
2023-02-01T19:40:39.429Z,3.70
2023-02-01T19:43:07.306Z,4.40
2023-02-01T19:45:35.934Z,3.73
2023-02-01T19:48:07.322Z,4.00
2023-02-01T19:50:35.305Z,4.00
2023-02-01T19:53:04.760Z,4.20
2023-02-01T19:55:32.721Z,3.70
2023-02-01T19:58:02.385Z,3.10
2023-02-01T20:00:29.816Z,3.70
2023-02-01T20:02:58.429Z,3.10
2023-02-01T20:05:26.544Z,3.77
2023-02-01T20:07:54.536Z,3.93
2023-02-01T20:10:24.336Z,3.97
2023-02-01T20:12:52.263Z,3.67
2023-02-01T20:15:22.009Z,3.53
2023-02-01T20:17:50.204Z,3.33
2023-02-01T20:20:18.401Z,3.47
2023-02-01T20:22:46.411Z,4.10
2023-02-01T20:25:14.838Z,3.80
2023-02-01T20:27:44.984Z,3.40
2023-02-01T20:30:19.842Z,3.33
2023-02-01T20:32:49.549Z,3.20
2023-02-01T20:35:19.035Z,3.87
2023-02-01T20:38:04.371Z,3.63
2023-02-01T20:40:32.417Z,4.03
2023-02-01T20:43:01.916Z,3.40
2023-02-01T20:45:29.850Z,3.40
2023-02-01T20:47:57.775Z,3.03
2023-02-01T20:50:25.769Z,3.60
2023-02-01T20:52:53.658Z,3.67
2023-02-01T20:55:21.811Z,3.30
2023-02-01T20:57:49.936Z,3.73
2023-02-01T21:00:20.340Z,3.30
2023-02-01T21:02:48.633Z,3.67
2023-02-01T21:05:17.143Z,3.07
2023-02-01T21:07:45.510Z,3.73
2023-02-01T21:10:13.637Z,3.20
2023-02-01T21:12:41.856Z,3.93
2023-02-01T21:15:10.502Z,3.10
2023-02-01T21:17:40.841Z,3.53
2023-02-01T21:20:09.889Z,3.43
2023-02-01T21:22:37.803Z,4.20
2023-02-01T21:25:06.440Z,4.20
2023-02-01T21:27:34.467Z,3.73
2023-02-01T21:30:02.382Z,3.73
2023-02-01T21:32:30.367Z,3.57
2023-02-01T21:34:59.615Z,3.80
2023-02-01T21:37:27.499Z,3.30
2023-02-01T21:39:56.404Z,3.20
2023-02-01T21:42:26.434Z,3.90
2023-02-01T21:44:55.104Z,4.10
2023-02-01T21:47:26.180Z,3.50
2023-02-01T21:49:55.030Z,3.37
2023-02-01T21:52:25.080Z,3.13
2023-02-01T21:54:59.210Z,3.43
2023-02-01T21:57:27.548Z,3.33
2023-02-01T21:59:55.526Z,3.77
2023-02-01T22:02:23.523Z,3.60
2023-02-01T22:04:51.450Z,3.40
2023-02-01T22:07:19.560Z,3.57
2023-02-01T22:09:48.781Z,4.07
2023-02-01T22:12:17.852Z,3.57
2023-02-01T22:14:46.456Z,3.50
2023-02-01T22:17:14.378Z,3.53
2023-02-01T22:19:42.698Z,3.50
2023-02-01T22:22:11.750Z,3.57
2023-02-01T22:24:39.815Z,3.30
2023-02-01T22:27:13.558Z,3.57
2023-02-01T22:29:41.948Z,3.27
2023-02-01T22:32:10.173Z,3.97
2023-02-01T22:34:39.044Z,4.27
2023-02-01T22:37:07.132Z,3.50
2023-02-01T22:39:35.071Z,3.87
2023-02-01T22:42:03.426Z,3.67
2023-02-01T22:44:32.636Z,3.53
2023-02-01T22:47:00.529Z,3.70
2023-02-01T22:49:28.879Z,2.90
2023-02-01T22:51:58.079Z,3.47
2023-02-01T22:54:26.094Z,3.27
2023-02-01T22:56:54.016Z,4.13
2023-02-01T22:59:22.034Z,3.37
2023-02-01T23:01:51.239Z,3.13
2023-02-01T23:04:21.361Z,3.80
2023-02-01T23:06:51.923Z,3.77
2023-02-01T23:09:21.643Z,3.83
2023-02-01T23:11:50.495Z,3.60
2023-02-01T23:14:19.343Z,3.60
2023-02-01T23:16:49.959Z,3.40
2023-02-01T23:19:20.379Z,3.90
2023-02-01T23:21:48.697Z,3.87
2023-02-01T23:24:16.685Z,3.87
2023-02-01T23:26:44.593Z,3.90
2023-02-01T23:29:18.317Z,4.23
2023-02-01T23:31:46.501Z,3.40
2023-02-01T23:34:14.494Z,3.60
2023-02-01T23:36:43.787Z,3.30
2023-02-01T23:39:11.738Z,3.80
2023-02-01T23:41:39.651Z,4.57
2023-02-01T23:44:07.701Z,4.13
2023-02-01T23:46:38.796Z,3.40
2023-02-01T23:49:09.071Z,3.43
2023-02-01T23:51:37.352Z,4.03
2023-02-01T23:54:07.334Z,3.70
2023-02-01T23:56:38.163Z,4.20
2023-02-01T23:59:09.068Z,4.63
